Time;durP1;ratioP1;P1;durP2;ratioP2;P2;SDS_P1;SDS_P2;PMS_P1;PMS_P2;Temp;Humidity;BMP_temperature;BMP_pressure;BME280_temperature;BME280_humidity;BME280_pressure;Samples;Min_cycle;Max_cycle;Signal;HPM_P1;HPM_P2
2020/12/13 00:00:08;;;;;;;60.65;24.88;;;;;;;2.74;75.25;100166.47;693576;28;21581;-65
2020/12/13 00:00:32;;;;;;;58.55;25.23;;;;;;;2.75;75.27;100170.00;691483;28;87229;-65
2020/12/13 00:00:53;;;;;;;58.05;24.52;;;;;;;2.75;75.35;100168.16;693924;28;15816;-65
2020/12/13 00:01:15;;;;;;;54.80;23.65;;;;;;;2.74;75.47;100168.31;693651;28;23342;-65
2020/12/13 00:01:36;;;;;;;54.10;23.70;;;;;;;2.75;75.44;100162.81;693733;28;22395;-66
2020/12/13 00:01:57;;;;;;;59.40;24.90;;;;;;;2.76;75.44;100169.00;692489;28;45345;-66
2020/12/13 00:02:20;;;;;;;54.83;23.58;;;;;;;2.76;75.47;100169.00;694258;28;23446;-66
2020/12/13 00:02:41;;;;;;;54.95;24.90;;;;;;;2.76;75.55;100167.19;692250;28;63958;-65
2020/12/13 00:03:03;;;;;;;56.83;24.35;;;;;;;2.76;75.44;100174.31;694529;28;964;-65
2020/12/13 00:03:24;;;;;;;55.67;24.65;;;;;;;2.75;75.54;100165.50;692954;28;45374;-66
2020/12/13 00:03:46;;;;;;;54.22;24.70;;;;;;;2.76;75.57;100161.84;694225;28;23537;-66
2020/12/13 00:04:07;;;;;;;58.08;25.25;;;;;;;2.75;75.38;100165.50;693272;28;43230;-65
2020/12/13 00:04:28;;;;;;;55.67;25.27;;;;;;;2.76;75.45;100163.66;694061;28;22414;-65
2020/12/13 00:04:49;;;;;;;59.28;25.67;;;;;;;2.76;75.66;100169.84;693982;28;23644;-66
2020/12/13 00:05:11;;;;;;;58.20;24.88;;;;;;;2.75;75.43;100170.81;694060;28;1474;-64
2020/12/13 00:05:33;;;;;;;61.35;24.80;;;;;;;2.76;75.34;100171.66;692800;28;45247;-65
2020/12/13 00:05:55;;;;;;;64.03;25.88;;;;;;;2.73;75.29;100164.81;693075;28;46339;-66
2020/12/13 00:06:16;;;;;;;55.33;24.63;;;;;;;2.74;75.33;100166.47;693013;28;44377;-65
2020/12/13 00:06:38;;;;;;;55.83;24.27;;;;;;;2.74;75.47;100166.47;694353;28;22224;-65
2020/12/13 00:06:59;;;;;;;57.28;25.35;;;;;;;2.74;75.45;100171.78;693096;28;47013;-65
2020/12/13 00:07:21;;;;;;;55.05;23.77;;;;;;;2.75;75.33;100168.16;693627;28;22696;-66
2020/12/13 00:07:42;;;;;;;61.60;24.80;;;;;;;2.76;75.38;100169.00;692926;28;46356;-65
2020/12/13 00:08:03;;;;;;;62.33;25.33;;;;;;;2.75;75.36;100173.50;693721;28;21306;-66
2020/12/13 00:08:26;;;;;;;55.90;24.90;;;;;;;2.74;75.34;100171.78;694140;28;23432;-66
2020/12/13 00:08:47;;;;;;;52.47;24.45;;;;;;;2.76;75.38;100166.31;693133;28;39401;-66
2020/12/13 00:09:09;;;;;;;52.47;24.37;;;;;;;2.75;75.32;100165.50;696483;28;22424;-65
2020/12/13 00:09:30;;;;;;;53.20;24.17;;;;;;;2.75;75.36;100167.31;695495;28;45261;-65
2020/12/13 00:09:51;;;;;;;58.88;24.83;;;;;;;2.76;75.39;100164.53;696238;28;22412;-66
2020/12/13 00:10:13;;;;;;;61.88;25.40;;;;;;;2.76;75.45;100163.66;696605;28;23428;-66
2020/12/13 00:10:34;;;;;;;54.92;25.20;;;;;;;2.76;75.42;100167.19;695862;28;46567;-66
2020/12/13 00:10:56;;;;;;;58.08;25.48;;;;;;;2.77;75.39;100170.69;696133;28;21550;-65
2020/12/13 00:11:18;;;;;;;57.60;25.63;;;;;;;2.76;75.46;100169.84;692830;28;44347;-65
2020/12/13 00:11:39;;;;;;;56.35;25.10;;;;;;;2.76;75.42;100169.84;692483;28;46324;-66
2020/12/13 00:12:02;;;;;;;59.10;25.48;;;;;;;2.77;75.58;100170.69;692593;28;21568;-66
2020/12/13 00:12:23;;;;;;;57.50;24.98;;;;;;;2.75;75.48;100165.50;692102;28;70082;-65
2020/12/13 00:12:45;;;;;;;54.15;24.20;;;;;;;2.76;75.53;100171.66;693412;28;22420;-66
2020/12/13 00:13:06;;;;;;;52.38;25.55;;;;;;;2.74;75.58;100165.63;692635;28;45312;-65
2020/12/13 00:13:28;;;;;;;56.97;26.15;;;;;;;2.76;75.49;100169.00;693805;28;22424;-65
2020/12/13 00:13:49;;;;;;;63.55;26.42;;;;;;;2.76;75.55;100175.19;693563;28;38632;-66
2020/12/13 00:14:10;;;;;;;59.90;25.55;;;;;;;2.76;75.38;100174.31;694059;28;22379;-64
2020/12/13 00:14:31;;;;;;;57.20;25.65;;;;;;;2.76;75.49;100174.31;694026;28;23470;-65
2020/12/13 00:14:53;;;;;;;56.38;26.13;;;;;;;2.76;75.50;100164.53;693344;28;44378;-65
2020/12/13 00:15:15;;;;;;;57.72;24.55;;;;;;;2.76;75.31;100175.19;693789;28;22349;-65
2020/12/13 00:15:36;;;;;;;56.28;25.40;;;;;;;2.77;75.23;100170.69;692672;28;45248;-65
2020/12/13 00:15:57;;;;;;;54.50;24.67;;;;;;;2.76;75.28;100177.84;693640;28;22400;-66
2020/12/13 00:16:18;;;;;;;56.75;25.23;;;;;;;2.76;75.21;100180.53;693797;28;22046;-66
2020/12/13 00:16:40;;;;;;;57.50;24.65;;;;;;;2.76;75.33;100167.19;692960;28;44339;-65
2020/12/13 00:17:02;;;;;;;54.60;24.40;;;;;;;2.77;75.26;100173.34;693628;28;22398;-65
2020/12/13 00:17:23;;;;;;;58.28;25.15;;;;;;;2.78;75.35;100177.72;693125;28;44388;-66
2020/12/13 00:17:45;;;;;;;56.80;25.13;;;;;;;2.78;75.37;100178.53;693856;28;22383;-65
2020/12/13 00:18:07;;;;;;;50.50;23.45;;;;;;;2.78;75.35;100178.53;692556;28;44393;-65
2020/12/13 00:18:28;;;;;;;51.08;23.88;;;;;;;2.77;75.38;100176.84;692783;28;44384;-65
2020/12/13 00:18:49;;;;;;;56.85;24.40;;;;;;;2.77;75.40;100176.84;693278;28;21336;-65
2020/12/13 00:19:10;;;;;;;58.63;24.75;;;;;;;2.77;75.28;100176.84;693339;28;22430;-65
2020/12/13 00:19:32;;;;;;;55.53;24.98;;;;;;;2.78;75.43;100175.06;693004;28;46630;-65
2020/12/13 00:19:53;;;;;;;60.35;25.40;;;;;;;2.77;75.41;100178.69;693431;28;22253;-65
2020/12/13 00:20:15;;;;;;;50.47;23.77;;;;;;;2.78;75.48;100188.38;693617;28;23159;-66
2020/12/13 00:20:36;;;;;;;55.35;23.98;;;;;;;2.78;75.43;100172.38;692873;28;46370;-65
2020/12/13 00:20:59;;;;;;;57.20;24.85;;;;;;;2.77;75.56;100182.19;694558;28;908;-65
2020/12/13 00:21:26;;;;;;;54.95;24.83;;;;;;;2.76;75.54;100175.19;694475;28;923;-65
2020/12/13 00:21:50;;;;;;;59.80;25.63;;;;;;;2.77;75.44;100176.03;690652;28;121964;-66
2020/12/13 00:22:12;;;;;;;62.22;25.85;;;;;;;2.77;75.55;100178.69;690743;28;91990;-65
2020/12/13 00:22:33;;;;;;;62.15;26.05;;;;;;;2.78;75.49;100183.03;695679;28;44578;-65
2020/12/13 00:22:54;;;;;;;56.33;25.08;;;;;;;2.77;75.54;100182.19;695980;28;21660;-66
2020/12/13 00:23:16;;;;;;;53.03;24.35;;;;;;;2.76;75.60;100179.66;695848;28;45187;-65
2020/12/13 00:23:37;;;;;;;56.70;24.17;;;;;;;2.76;75.54;100180.53;696486;28;23428;-65
2020/12/13 00:23:59;;;;;;;62.72;26.13;;;;;;;2.78;75.52;100181.22;696047;28;35995;-66
2020/12/13 00:24:20;;;;;;;59.20;26.20;;;;;;;2.78;75.54;100180.38;696178;28;22419;-65
2020/12/13 00:24:41;;;;;;;57.53;25.83;;;;;;;2.78;75.54;100181.22;693512;28;46314;-66
2020/12/13 00:25:03;;;;;;;56.38;24.98;;;;;;;2.78;75.42;100177.72;693230;28;15401;-66
2020/12/13 00:25:27;;;;;;;56.42;24.60;;;;;;;2.77;75.35;100181.34;692645;28;91955;-65
2020/12/13 00:25:49;;;;;;;57.60;24.30;;;;;;;2.78;75.41;100177.72;694667;28;38421;-65
2020/12/13 00:26:11;;;;;;;57.75;24.75;;;;;;;2.78;75.35;100183.03;694893;28;23603;-65
2020/12/13 00:26:32;;;;;;;56.90;24.98;;;;;;;2.77;75.37;100184.84;693669;28;69392;-65
2020/12/13 00:26:54;;;;;;;56.60;24.80;;;;;;;2.78;75.50;100181.22;695667;28;910;-66
2020/12/13 00:27:15;;;;;;;54.95;24.48;;;;;;;2.76;75.44;100177.84;693841;28;45320;-66
2020/12/13 00:27:37;;;;;;;55.50;24.02;;;;;;;2.78;75.46;100178.53;693960;28;23254;-66
2020/12/13 00:27:58;;;;;;;55.58;24.90;;;;;;;2.78;75.51;100181.22;694498;28;9218;-65
2020/12/13 00:28:20;;;;;;;58.30;24.88;;;;;;;2.78;75.43;100180.38;699924;28;1031;-65
2020/12/13 00:28:41;;;;;;;56.50;24.48;;;;;;;2.78;75.48;100183.03;698453;28;44520;-66
2020/12/13 00:29:02;;;;;;;60.28;25.10;;;;;;;2.79;75.37;100180.25;699288;28;22399;-65
2020/12/13 00:29:23;;;;;;;54.55;24.50;;;;;;;2.78;75.47;100177.72;698377;28;46924;-66
2020/12/13 00:29:45;;;;;;;52.70;24.30;;;;;;;2.80;75.50;100189.06;699207;28;23525;-65
2020/12/13 00:30:06;;;;;;;56.22;25.85;;;;;;;2.79;75.53;100182.91;697857;28;23526;-65
2020/12/13 00:30:28;;;;;;;53.40;25.00;;;;;;;2.79;75.53;100185.56;693558;28;30306;-66
2020/12/13 00:30:49;;;;;;;54.38;24.13;;;;;;;2.78;75.56;100180.38;694336;28;18179;-66
2020/12/13 00:31:12;;;;;;;54.03;24.45;;;;;;;2.75;75.50;100186.81;694671;28;905;-65
2020/12/13 00:31:34;;;;;;;54.60;23.55;;;;;;;2.78;75.56;100189.22;691208;28;93134;-65
2020/12/13 00:31:55;;;;;;;56.35;24.02;;;;;;;2.79;75.63;100184.72;693693;28;23430;-66
2020/12/13 00:32:17;;;;;;;54.80;24.52;;;;;;;2.79;75.57;100187.38;694791;28;66341;-65
2020/12/13 00:32:38;;;;;;;56.75;24.80;;;;;;;2.80;75.54;100189.06;696520;28;22486;-65
2020/12/13 00:32:59;;;;;;;56.97;24.30;;;;;;;2.79;75.52;100190.91;696545;28;22345;-66
2020/12/13 00:33:21;;;;;;;54.15;24.23;;;;;;;2.79;75.55;100185.56;695160;28;47289;-66
2020/12/13 00:33:43;;;;;;;55.65;24.63;;;;;;;2.79;75.54;100188.25;695941;28;26911;-65
2020/12/13 00:34:04;;;;;;;53.80;24.90;;;;;;;2.79;75.63;100185.56;695547;28;22219;-66
2020/12/13 00:34:29;;;;;;;55.33;24.75;;;;;;;2.79;75.49;100185.56;692922;28;59616;-66
2020/12/13 00:34:51;;;;;;;57.83;25.50;;;;;;;2.80;75.57;100186.41;694061;28;14918;-66
2020/12/13 00:35:13;;;;;;;58.30;24.83;;;;;;;2.78;75.61;100185.72;691433;28;31028;-66
2020/12/13 00:35:35;;;;;;;58.83;25.08;;;;;;;2.77;75.57;100190.19;691600;28;39920;-65
2020/12/13 00:35:56;;;;;;;56.33;25.00;;;;;;;2.78;75.65;100191.88;692314;28;22391;-65
2020/12/13 00:36:19;;;;;;;55.70;25.40;;;;;;;2.78;75.58;100188.38;691012;28;21606;-66
2020/12/13 00:36:40;;;;;;;58.40;24.50;;;;;;;2.78;75.65;100186.53;690924;28;69813;-66
2020/12/13 00:37:01;;;;;;;62.03;24.95;;;;;;;2.78;75.63;100183.88;694892;28;22343;-66
2020/12/13 00:37:23;;;;;;;58.08;25.27;;;;;;;2.79;75.66;100190.03;693081;28;46577;-65
2020/12/13 00:37:44;;;;;;;56.90;26.33;;;;;;;2.79;75.60;100188.25;696649;28;22508;-66
2020/12/13 00:38:06;;;;;;;56.05;25.20;;;;;;;2.78;75.53;100191.06;696211;28;36411;-65
2020/12/13 00:38:27;;;;;;;53.78;24.67;;;;;;;2.78;75.63;100189.22;696140;28;21525;-65
2020/12/13 00:38:50;;;;;;;53.72;24.42;;;;;;;2.79;75.42;100192.72;696204;28;22344;-66
2020/12/13 00:39:11;;;;;;;59.83;24.95;;;;;;;2.79;75.47;100190.91;693741;28;57121;-65
2020/12/13 00:39:37;;;;;;;55.50;24.55;;;;;;;2.79;75.64;100190.91;693877;28;47466;-65
2020/12/13 00:39:59;;;;;;;55.58;24.80;;;;;;;2.78;75.59;100193.72;691048;28;137693;-65
2020/12/13 00:40:20;;;;;;;58.95;24.48;;;;;;;2.78;75.70;100186.53;695268;28;23478;-65
2020/12/13 00:40:42;;;;;;;58.53;24.30;;;;;;;2.78;75.52;100189.22;695269;28;22325;-64
2020/12/13 00:41:04;;;;;;;52.88;23.85;;;;;;;2.77;75.68;100198.19;693471;28;45234;-65
2020/12/13 00:41:25;;;;;;;57.58;24.90;;;;;;;2.79;75.63;100195.38;692873;28;46405;-64
2020/12/13 00:41:50;;;;;;;58.63;25.33;;;;;;;2.78;75.65;100199.88;693643;28;30161;-66
2020/12/13 00:42:11;;;;;;;59.72;25.15;;;;;;;2.79;75.78;100195.38;694003;28;57767;-65
2020/12/13 00:42:33;;;;;;;61.80;25.40;;;;;;;2.78;75.55;100199.88;695562;28;46350;-66
2020/12/13 00:42:54;;;;;;;58.88;25.50;;;;;;;2.78;75.67;100199.06;695365;28;45248;-65
2020/12/13 00:43:15;;;;;;;61.47;26.30;;;;;;;2.79;75.61;100192.72;696009;28;24357;-66
2020/12/13 00:43:37;;;;;;;60.15;25.58;;;;;;;2.80;75.51;100191.75;696188;28;21564;-67
2020/12/13 00:43:58;;;;;;;55.55;25.15;;;;;;;2.79;75.61;100190.91;696123;28;22422;-68
2020/12/13 00:44:21;;;;;;;55.00;24.98;;;;;;;2.79;75.70;100198.91;695977;28;46182;-66
2020/12/13 00:44:42;;;;;;;56.95;24.80;;;;;;;2.80;75.66;100197.91;696046;28;29907;-66
2020/12/13 00:45:04;;;;;;;55.15;25.02;;;;;;;2.78;75.60;100194.53;693657;28;43090;-66
2020/12/13 00:45:25;;;;;;;61.20;26.33;;;;;;;2.80;75.94;100197.06;695819;28;862;-66
2020/12/13 00:45:47;;;;;;;56.17;25.77;;;;;;;2.78;75.79;100199.88;695012;28;24557;-66
2020/12/13 00:46:08;;;;;;;58.53;25.17;;;;;;;2.80;75.80;100197.06;691062;28;22387;-66
2020/12/13 00:46:29;;;;;;;58.20;25.25;;;;;;;2.79;75.76;100198.03;687661;28;42535;-66
2020/12/13 00:46:51;;;;;;;58.15;25.52;;;;;;;2.80;75.71;100203.25;689265;28;22484;-67
2020/12/13 00:47:13;;;;;;;59.70;25.67;;;;;;;2.78;75.69;100193.72;692970;28;33859;-66
2020/12/13 00:47:34;;;;;;;58.67;25.00;;;;;;;2.80;75.76;100197.06;692749;28;46437;-66
2020/12/13 00:47:55;;;;;;;59.35;25.35;;;;;;;2.79;75.70;100196.25;694483;28;1636;-66
2020/12/13 00:48:17;;;;;;;55.83;24.73;;;;;;;2.80;75.75;100199.75;691170;28;23478;-66
2020/12/13 00:48:39;;;;;;;53.28;24.00;;;;;;;2.79;75.65;100198.91;688322;28;45404;-66
2020/12/13 00:49:00;;;;;;;52.55;22.98;;;;;;;2.79;75.83;100198.91;687325;28;45033;-66
2020/12/13 00:49:22;;;;;;;58.22;25.20;;;;;;;2.79;75.95;100193.56;689342;28;22416;-66
2020/12/13 00:49:44;;;;;;;58.17;25.70;;;;;;;2.80;75.82;100202.41;690262;28;43555;-65
2020/12/13 00:50:05;;;;;;;58.65;24.98;;;;;;;2.80;75.78;100195.25;690882;28;44412;-66
2020/12/13 00:50:26;;;;;;;59.20;24.58;;;;;;;2.79;75.86;100196.25;694472;28;22525;-66
2020/12/13 00:50:48;;;;;;;56.28;25.23;;;;;;;2.80;75.92;100197.91;694402;28;22230;-67
2020/12/13 00:51:09;;;;;;;57.47;25.15;;;;;;;2.80;75.78;100197.06;695679;28;46237;-66
2020/12/13 00:51:32;;;;;;;59.15;25.50;;;;;;;2.80;75.97;100197.06;692993;28;22235;-66
2020/12/13 00:51:53;;;;;;;54.97;24.95;;;;;;;2.80;76.02;100192.56;687611;28;61827;-66
2020/12/13 00:52:15;;;;;;;54.60;24.42;;;;;;;2.80;75.83;100200.56;688912;28;16140;-66
2020/12/13 00:52:39;;;;;;;60.87;24.60;;;;;;;2.79;76.08;100203.38;691846;28;21597;-67
2020/12/13 00:53:02;;;;;;;61.60;25.85;;;;;;;2.80;75.90;100194.41;685579;28;138297;-66
2020/12/13 00:53:23;;;;;;;58.58;25.70;;;;;;;2.80;75.94;100199.75;689733;28;46151;-66
2020/12/13 00:53:46;;;;;;;60.22;26.88;;;;;;;2.81;75.87;100198.78;690696;28;68429;-67
2020/12/13 00:54:08;;;;;;;57.75;25.42;;;;;;;2.81;75.91;100198.78;692387;28;22401;-66
2020/12/13 00:54:30;;;;;;;54.47;24.90;;;;;;;2.81;75.88;100199.59;693092;28;45246;-66
2020/12/13 00:54:52;;;;;;;54.15;24.75;;;;;;;2.81;75.95;100202.28;689332;28;68338;-67
2020/12/13 00:55:14;;;;;;;54.38;25.20;;;;;;;2.82;75.86;100203.97;687452;28;23489;-66
2020/12/13 00:55:35;;;;;;;56.65;25.27;;;;;;;2.82;76.02;100205.78;688341;28;23502;-66
2020/12/13 00:56:02;;;;;;;56.78;24.90;;;;;;;2.82;75.99;100200.44;687108;28;80966;-66
2020/12/13 00:56:25;;;;;;;58.50;25.35;;;;;;;2.81;75.91;100204.94;685807;28;137938;-66
2020/12/13 00:56:48;;;;;;;54.70;24.77;;;;;;;2.81;75.89;100204.94;688599;28;68198;-67
2020/12/13 00:57:12;;;;;;;57.10;26.08;;;;;;;2.81;75.90;100206.78;689889;28;69466;-65
2020/12/13 00:57:33;;;;;;;60.45;25.63;;;;;;;2.82;75.79;100208.44;692325;28;22401;-66
2020/12/13 00:57:55;;;;;;;61.15;25.63;;;;;;;2.79;75.71;100204.25;691000;28;46320;-66
2020/12/13 00:58:16;;;;;;;59.25;24.85;;;;;;;2.82;75.78;100211.97;693257;28;21129;-66
2020/12/13 00:58:39;;;;;;;55.30;23.95;;;;;;;2.82;75.69;100211.97;696416;28;12958;-65
2020/12/13 00:59:01;;;;;;;56.85;25.23;;;;;;;2.82;75.60;100205.78;697609;28;3297;-66
2020/12/13 00:59:32;;;;;;;61.03;25.50;;;;;;;2.80;75.71;100202.41;693952;28;97243;-67
2020/12/13 00:59:54;;;;;;;59.50;25.75;;;;;;;2.82;75.66;100209.31;696737;28;17952;-66
2020/12/13 01:00:15;;;;;;;60.30;25.75;;;;;;;2.81;75.72;100202.28;695891;28;45098;-66
2020/12/13 01:00:36;;;;;;;57.47;25.45;;;;;;;2.81;75.78;100207.59;696818;28;7320;-66
2020/12/13 01:00:58;;;;;;;56.08;25.58;;;;;;;2.82;75.75;100211.97;696333;28;19874;-66
2020/12/13 01:01:19;;;;;;;56.55;25.67;;;;;;;2.82;75.73;100211.97;695710;28;39856;-66
2020/12/13 01:01:40;;;;;;;60.15;25.60;;;;;;;2.82;75.67;100214.63;696626;28;14516;-66
2020/12/13 01:02:02;;;;;;;54.38;25.13;;;;;;;2.82;75.66;100211.97;697016;28;1059;-65
2020/12/13 01:02:23;;;;;;;59.47;25.80;;;;;;;2.82;75.57;100206.63;694804;28;67342;-66
2020/12/13 01:02:45;;;;;;;60.95;26.77;;;;;;;2.81;75.71;100209.44;696638;28;22469;-66
2020/12/13 01:03:06;;;;;;;59.17;26.27;;;;;;;2.81;75.73;100207.59;695965;28;47712;-67
2020/12/13 01:03:27;;;;;;;55.63;25.33;;;;;;;2.83;75.72;100212.81;696121;28;22271;-66
2020/12/13 01:03:50;;;;;;;54.00;24.33;;;;;;;2.82;75.75;100209.31;696136;28;21525;-67
2020/12/13 01:04:11;;;;;;;57.45;25.52;;;;;;;2.82;75.67;100209.31;697414;28;67501;-66
2020/12/13 01:04:33;;;;;;;62.58;25.60;;;;;;;2.83;75.95;100213.63;699108;28;22326;-67
2020/12/13 01:04:55;;;;;;;61.25;25.20;;;;;;;2.82;75.72;100203.09;698320;28;47201;-67
2020/12/13 01:05:16;;;;;;;61.05;25.48;;;;;;;2.82;75.99;100211.97;697486;28;46260;-66
2020/12/13 01:05:38;;;;;;;58.20;26.42;;;;;;;2.83;75.93;100208.28;698774;28;22429;-66
2020/12/13 01:06:01;;;;;;;60.50;26.40;;;;;;;2.83;75.92;100212.81;697419;28;46314;-66
2020/12/13 01:06:23;;;;;;;58.22;25.98;;;;;;;2.84;75.92;100214.50;694815;28;67617;-66
2020/12/13 01:06:46;;;;;;;58.33;24.85;;;;;;;2.83;75.95;100213.63;694975;28;69429;-66
2020/12/13 01:07:07;;;;;;;60.10;24.98;;;;;;;2.83;76.27;100210.97;695152;28;46343;-66
2020/12/13 01:07:29;;;;;;;61.67;25.98;;;;;;;2.84;75.97;100214.50;696330;28;21595;-66
2020/12/13 01:07:50;;;;;;;56.30;25.27;;;;;;;2.83;75.81;100215.47;696391;28;30977;-66
2020/12/13 01:08:11;;;;;;;59.03;25.55;;;;;;;2.83;75.90;100216.28;694838;28;23433;-66
2020/12/13 01:08:33;;;;;;;58.22;26.02;;;;;;;2.82;75.82;100211.97;695080;28;22445;-65
2020/12/13 01:08:55;;;;;;;59.03;25.80;;;;;;;2.82;75.92;100209.31;694184;28;47332;-67
2020/12/13 01:09:16;;;;;;;57.60;25.67;;;;;;;2.83;75.87;100210.13;694023;28;45052;-65
2020/12/13 01:09:37;;;;;;;59.72;24.85;;;;;;;2.84;75.91;100214.50;694856;28;23485;-66
2020/12/13 01:09:59;;;;;;;62.97;24.92;;;;;;;2.82;75.77;100213.78;695124;28;22399;-66
2020/12/13 01:10:21;;;;;;;60.10;25.23;;;;;;;2.83;75.72;100212.81;695941;28;46404;-66
2020/12/13 01:10:43;;;;;;;59.88;26.17;;;;;;;2.83;75.94;100210.13;694747;28;28336;-65
2020/12/13 01:11:04;;;;;;;66.45;26.45;;;;;;;2.82;75.88;100219.97;693873;28;46421;-65
2020/12/13 01:11:26;;;;;;;60.42;26.00;;;;;;;2.83;75.82;100215.47;695610;28;958;-66
2020/12/13 01:11:48;;;;;;;58.05;25.90;;;;;;;2.84;75.86;100223.31;693968;28;44501;-67
2020/12/13 01:12:09;;;;;;;56.42;25.35;;;;;;;2.83;75.74;100216.28;694983;28;10660;-66
2020/12/13 01:12:31;;;;;;;61.28;25.08;;;;;;;2.83;75.84;100215.47;695570;28;21229;-66
2020/12/13 01:12:52;;;;;;;59.65;26.08;;;;;;;2.84;75.78;100218.00;695300;28;44172;-65
2020/12/13 01:13:14;;;;;;;56.97;25.65;;;;;;;2.85;75.78;100216.16;695984;28;22339;-66
2020/12/13 01:13:35;;;;;;;62.08;25.35;;;;;;;2.84;75.72;100212.66;695474;28;46357;-66
2020/12/13 01:13:57;;;;;;;57.78;25.50;;;;;;;2.84;75.98;100220.66;696406;28;21433;-66
2020/12/13 01:14:18;;;;;;;58.38;25.75;;;;;;;2.85;75.94;100221.50;695597;28;45252;-65
2020/12/13 01:14:39;;;;;;;57.78;25.55;;;;;;;2.84;75.92;100214.50;696665;28;22405;-67
2020/12/13 01:15:01;;;;;;;60.90;25.58;;;;;;;2.84;76.07;100218.00;695786;28;23475;-66
2020/12/13 01:15:22;;;;;;;59.90;24.80;;;;;;;2.85;76.07;100225.03;695389;28;46215;-65
2020/12/13 01:15:43;;;;;;;59.97;25.88;;;;;;;2.85;76.19;100226.81;696279;28;23525;-65
2020/12/13 01:16:05;;;;;;;54.95;25.33;;;;;;;2.84;76.09;100223.31;695021;28;46437;-66
2020/12/13 01:16:28;;;;;;;56.20;25.33;;;;;;;2.85;75.76;100218.81;696849;28;21545;-66
2020/12/13 01:16:49;;;;;;;56.28;24.63;;;;;;;2.85;75.95;100225.03;694626;28;69468;-66
2020/12/13 01:17:10;;;;;;;57.15;25.20;;;;;;;2.84;76.03;100223.31;696165;28;21459;-65
2020/12/13 01:17:31;;;;;;;57.65;24.70;;;;;;;2.84;76.02;100218.00;696272;28;23295;-66
2020/12/13 01:17:53;;;;;;;61.78;25.45;;;;;;;2.84;75.96;100225.16;695283;28;45264;-67
2020/12/13 01:18:15;;;;;;;58.60;25.02;;;;;;;2.84;75.96;100211.81;695768;28;45280;-66
2020/12/13 01:18:36;;;;;;;53.35;24.45;;;;;;;2.84;76.00;100227.84;696743;28;21489;-66
2020/12/13 01:18:59;;;;;;;54.75;25.30;;;;;;;2.84;76.23;100225.16;696604;28;22393;-66
2020/12/13 01:19:21;;;;;;;58.80;25.85;;;;;;;2.83;76.20;100220.81;694677;28;67850;-66
2020/12/13 01:19:47;;;;;;;55.50;24.83;;;;;;;2.84;76.17;100226.00;695153;28;67100;-66
2020/12/13 01:20:08;;;;;;;57.15;25.58;;;;;;;2.84;76.11;100227.84;693475;28;115117;-66
2020/12/13 01:20:29;;;;;;;58.72;25.85;;;;;;;2.85;76.20;100229.50;696643;28;22422;-66
2020/12/13 01:20:51;;;;;;;55.88;24.50;;;;;;;2.83;76.12;100220.81;696800;28;21593;-65
2020/12/13 01:21:17;;;;;;;60.05;25.45;;;;;;;2.84;76.21;100222.50;695675;28;46342;-66
2020/12/13 01:21:38;;;;;;;57.00;24.55;;;;;;;2.84;76.08;100223.31;692576;28;131411;-66
2020/12/13 01:22:01;;;;;;;54.70;25.05;;;;;;;2.84;76.09;100227.84;696192;28;22399;-66
2020/12/13 01:22:23;;;;;;;65.72;26.10;;;;;;;2.83;76.09;100226.97;694469;28;69306;-66
2020/12/13 01:22:44;;;;;;;58.97;25.58;;;;;;;2.83;76.11;100223.47;695503;28;46391;-66
2020/12/13 01:23:06;;;;;;;55.88;25.15;;;;;;;2.84;75.99;100219.81;696795;28;22234;-66
2020/12/13 01:23:27;;;;;;;59.30;25.48;;;;;;;2.84;76.03;100222.50;695880;28;45752;-67
2020/12/13 01:23:48;;;;;;;60.08;25.60;;;;;;;2.84;75.94;100222.50;697354;28;925;-66
2020/12/13 01:24:10;;;;;;;59.97;25.92;;;;;;;2.85;76.04;100225.03;695853;28;45176;-66
2020/12/13 01:24:31;;;;;;;58.78;25.08;;;;;;;2.85;76.01;100222.34;695547;28;44388;-65
2020/12/13 01:24:53;;;;;;;57.88;25.00;;;;;;;2.85;76.06;100229.50;696303;28;22121;-65
2020/12/13 01:25:14;;;;;;;57.30;25.23;;;;;;;2.86;76.00;100231.19;695646;28;23485;-65
2020/12/13 01:25:35;;;;;;;61.20;26.65;;;;;;;2.86;76.10;100223.19;696703;28;23452;-66
2020/12/13 01:25:57;;;;;;;62.38;26.75;;;;;;;2.84;76.21;100220.66;696402;28;22426;-65
2020/12/13 01:26:19;;;;;;;59.25;25.42;;;;;;;2.86;76.30;100228.53;695739;28;45056;-65
2020/12/13 01:26:41;;;;;;;58.10;25.63;;;;;;;2.85;76.20;100226.81;694615;28;69685;-66
2020/12/13 01:27:02;;;;;;;57.42;25.45;;;;;;;2.85;76.15;100226.81;696735;28;8222;-65
2020/12/13 01:27:24;;;;;;;59.97;26.33;;;;;;;2.86;76.25;100231.19;696577;28;21587;-67
2020/12/13 01:27:45;;;;;;;59.38;24.98;;;;;;;2.84;76.32;100226.00;695825;28;46647;-66
2020/12/13 01:28:06;;;;;;;52.95;24.42;;;;;;;2.85;76.34;100227.69;696345;28;23473;-66
2020/12/13 01:28:27;;;;;;;53.83;24.52;;;;;;;2.83;76.30;100224.28;695699;28;44208;-66
2020/12/13 01:28:49;;;;;;;56.35;26.13;;;;;;;2.84;76.38;100227.84;696507;28;23541;-66
2020/12/13 01:29:10;;;;;;;58.17;25.10;;;;;;;2.82;76.33;100233.31;695009;28;46353;-65
2020/12/13 01:29:32;;;;;;;58.70;25.55;;;;;;;2.81;76.23;100231.59;696128;28;18413;-66
2020/12/13 01:29:53;;;;;;;61.45;26.92;;;;;;;2.83;76.40;100234.97;696039;28;19605;-65
2020/12/13 01:30:14;;;;;;;60.97;25.92;;;;;;;2.83;76.33;100232.31;695430;28;46333;-66
2020/12/13 01:30:36;;;;;;;56.60;25.77;;;;;;;2.83;76.26;100237.63;696623;28;21543;-66
2020/12/13 01:30:57;;;;;;;55.25;25.48;;;;;;;2.84;76.17;100230.50;696476;28;23486;-66
2020/12/13 01:31:20;;;;;;;54.90;24.83;;;;;;;2.83;76.15;100226.97;696806;28;19852;-65
2020/12/13 01:31:41;;;;;;;61.53;25.75;;;;;;;2.84;76.19;100231.31;695176;28;56147;-65
2020/12/13 01:32:03;;;;;;;59.53;26.23;;;;;;;2.86;76.12;100236.53;696830;28;917;-66
2020/12/13 01:32:24;;;;;;;59.75;26.02;;;;;;;2.84;76.14;100228.66;695813;28;37309;-65
2020/12/13 01:32:47;;;;;;;60.78;26.23;;;;;;;2.85;76.21;100237.50;695883;28;35246;-66
2020/12/13 01:33:09;;;;;;;59.10;26.17;;;;;;;2.86;76.27;100234.69;695765;28;45047;-65
2020/12/13 01:33:30;;;;;;;60.40;26.05;;;;;;;2.85;76.32;100232.16;696601;28;23490;-65
2020/12/13 01:33:52;;;;;;;59.50;25.45;;;;;;;2.85;76.33;100230.34;696567;28;21302;-65
2020/12/13 01:34:14;;;;;;;59.08;25.98;;;;;;;2.85;76.38;100233.03;694229;28;70703;-65
2020/12/13 01:34:35;;;;;;;59.92;26.55;;;;;;;2.86;76.24;100239.19;696421;28;22388;-67
2020/12/13 01:34:56;;;;;;;60.33;26.63;;;;;;;2.85;76.23;100238.34;696088;28;23547;-66
2020/12/13 01:35:17;;;;;;;62.45;26.48;;;;;;;2.85;76.21;100232.16;696008;28;16742;-66
2020/12/13 01:35:39;;;;;;;55.25;24.65;;;;;;;2.86;76.32;100233.84;696646;28;23425;-66
2020/12/13 01:36:01;;;;;;;54.83;25.50;;;;;;;2.86;76.21;100234.69;695654;28;46005;-66
2020/12/13 01:36:23;;;;;;;61.05;26.75;;;;;;;2.86;76.21;100241.84;694007;28;46334;-67
2020/12/13 01:36:44;;;;;;;60.28;26.25;;;;;;;2.86;76.20;100232.03;694023;28;45869;-67
2020/12/13 01:37:06;;;;;;;61.90;25.15;;;;;;;2.85;76.45;100233.03;694792;28;21727;-67
2020/12/13 01:37:28;;;;;;;60.97;25.55;;;;;;;2.85;76.33;100229.50;694157;28;44453;-67
2020/12/13 01:37:49;;;;;;;60.65;25.38;;;;;;;2.86;76.35;100231.19;694140;28;44204;-66
2020/12/13 01:38:10;;;;;;;59.92;25.33;;;;;;;2.85;76.41;100233.03;694579;28;22269;-66
2020/12/13 01:38:32;;;;;;;57.90;26.02;;;;;;;2.85;76.40;100234.81;695080;28;22215;-67
2020/12/13 01:38:53;;;;;;;60.90;25.95;;;;;;;2.85;76.35;100233.03;696190;28;23457;-66
2020/12/13 01:39:15;;;;;;;57.13;25.98;;;;;;;2.84;76.33;100238.50;695509;28;45250;-67
2020/12/13 01:39:36;;;;;;;59.63;26.20;;;;;;;2.85;76.35;100238.34;696663;28;23698;-68
2020/12/13 01:39:57;;;;;;;56.20;26.15;;;;;;;2.86;76.31;100239.19;695693;28;44406;-66
2020/12/13 01:40:19;;;;;;;58.13;25.63;;;;;;;2.86;76.54;100239.19;696576;28;23389;-66
2020/12/13 01:40:41;;;;;;;57.50;25.35;;;;;;;2.85;76.57;100235.69;695591;28;45355;-64
2020/12/13 01:41:02;;;;;;;61.90;25.80;;;;;;;2.85;76.45;100237.50;695344;28;44438;-66
2020/12/13 01:41:24;;;;;;;57.35;25.40;;;;;;;2.84;76.47;100233.16;696786;28;22285;-68